Strona główna
METAR-TAF:

METAR-TAF

Lotnisko :

William H. Morse State Airport

Bennington, Vermont, Stany Zjednoczone

Szerokość geograficzna: 42-53-24N, Długość geograficzna: 073-14-47W, wysokość: 252 m

Aktualna obserwacja pogody

Raport powstał 27 minut temu, godzina 17:54 UTC
Wiatr 6 kt od zachód
Temperatura 26°C
Wilgotność 51%
Ciśnienie 1012 hPa
Widzialność: 16.1 km
bezchmurnie

METAR: KDDH 241754Z AUTO 27006KT 10SM CLR 26/15 A2988 RMK AO2 SLP113 T02560150 10261 20178 58005

czas: 14:21 (18:21 UTC)


TAF: brakujący

Obserwacja i prognoza pogody dla ponad 4000 lotnisk (raport METAR i TAF).

Dostępne stacje oznaczono żółtymi i czerwonymi punktami na mapie.

Najedź kursorem aby zobaczyć nazwę stacji.

Kliknij aby zobaczyć obserwacje i prognozy pogody.

Aby zmienić mapę: kliknij na zielony przycisk z czarnym krzyżykiem, aby powiększyć; na zielony przycisk z myślnikiem, aby pomniejszyć; na zielone strzałki, aby przejść do map sąsiednich.


METAR-TAF: